Waunakee, Wisconsin
Current Conditions -  °F | °C
As of 8:30 AM on Saturday 22 Nov 2014 (Local Time) from KC29 Reporting Station
Overcast Overcast  
Wind Chill: 30°   Ceiling: 300
Heat Index: 37°   Visibility: 0.75mi
Dew Point: 37°   Wind: 10mph
Humidity: 99%   Direction: 200°SSW
Pressure: 29.91"   Gusts: 17mph
Location:  43.19°N, 89.46°W
Report Text: KC29 221430Z AUTO 20009G15KT 3/4SM OVC003 03/03 A2991 RMK AO1 T00270025
Loading
Personal Weather Stations






























Interactive Weather Map New forecast layout! Learn more

10-Day Weather Forecast

Advertisements
Track Severe Weather on mobile